sensor_id;sensor_type;location;lat;lon;timestamp;P1;durP1;ratioP1;P2;durP2;ratioP2
56680;SDS011;42558;52.388;13.390;2023-02-28T00:01:57;15.01;;;8.55;;
56680;SDS011;42558;52.388;13.390;2023-02-28T00:04:26;14.44;;;7.79;;
56680;SDS011;42558;52.388;13.390;2023-02-28T00:06:56;15.58;;;7.60;;
56680;SDS011;42558;52.388;13.390;2023-02-28T00:09:26;15.96;;;7.79;;
56680;SDS011;42558;52.388;13.390;2023-02-28T00:11:56;12.35;;;7.60;;
56680;SDS011;42558;52.388;13.390;2023-02-28T00:14:26;12.92;;;7.22;;
56680;SDS011;42558;52.388;13.390;2023-02-28T00:16:56;16.53;;;8.55;;
56680;SDS011;42558;52.388;13.390;2023-02-28T00:19:26;14.82;;;8.17;;
56680;SDS011;42558;52.388;13.390;2023-02-28T00:21:55;17.67;;;7.79;;
56680;SDS011;42558;52.388;13.390;2023-02-28T00:24:24;14.25;;;7.98;;
56680;SDS011;42558;52.388;13.390;2023-02-28T00:26:52;15.39;;;7.79;;
56680;SDS011;42558;52.388;13.390;2023-02-28T00:29:21;13.49;;;8.17;;
56680;SDS011;42558;52.388;13.390;2023-02-28T00:31:49;11.78;;;7.60;;
56680;SDS011;42558;52.388;13.390;2023-02-28T00:34:17;13.68;;;7.79;;
56680;SDS011;42558;52.388;13.390;2023-02-28T00:36:46;14.25;;;7.79;;
56680;SDS011;42558;52.388;13.390;2023-02-28T00:39:17;17.67;;;7.60;;
56680;SDS011;42558;52.388;13.390;2023-02-28T00:41:46;13.49;;;7.60;;
56680;SDS011;42558;52.388;13.390;2023-02-28T00:44:14;12.54;;;7.03;;
56680;SDS011;42558;52.388;13.390;2023-02-28T00:46:43;13.68;;;7.41;;
56680;SDS011;42558;52.388;13.390;2023-02-28T00:49:11;13.68;;;7.22;;
56680;SDS011;42558;52.388;13.390;2023-02-28T00:51:39;12.35;;;7.22;;
56680;SDS011;42558;52.388;13.390;2023-02-28T00:54:08;17.86;;;7.79;;
56680;SDS011;42558;52.388;13.390;2023-02-28T00:56:36;15.77;;;7.79;;
56680;SDS011;42558;52.388;13.390;2023-02-28T00:59:05;15.77;;;7.79;;
56680;SDS011;42558;52.388;13.390;2023-02-28T01:01:34;13.68;;;7.79;;
56680;SDS011;42558;52.388;13.390;2023-02-28T01:04:04;16.15;;;7.41;;
56680;SDS011;42558;52.388;13.390;2023-02-28T01:06:34;16.34;;;7.60;;
56680;SDS011;42558;52.388;13.390;2023-02-28T01:09:06;16.91;;;8.17;;
56680;SDS011;42558;52.388;13.390;2023-02-28T01:11:36;12.54;;;7.98;;
56680;SDS011;42558;52.388;13.390;2023-02-28T01:14:08;11.97;;;7.03;;
56680;SDS011;42558;52.388;13.390;2023-02-28T01:16:38;14.06;;;7.79;;
56680;SDS011;42558;52.388;13.390;2023-02-28T01:19:08;13.11;;;6.84;;
56680;SDS011;42558;52.388;13.390;2023-02-28T01:21:38;16.15;;;7.03;;
56680;SDS011;42558;52.388;13.390;2023-02-28T01:24:08;12.16;;;7.22;;
56680;SDS011;42558;52.388;13.390;2023-02-28T01:26:38;15.96;;;8.93;;
56680;SDS011;42558;52.388;13.390;2023-02-28T01:29:08;15.77;;;7.22;;
56680;SDS011;42558;52.388;13.390;2023-02-28T01:31:38;14.06;;;7.41;;
56680;SDS011;42558;52.388;13.390;2023-02-28T01:34:08;13.49;;;7.41;;
56680;SDS011;42558;52.388;13.390;2023-02-28T01:36:38;13.30;;;7.79;;
56680;SDS011;42558;52.388;13.390;2023-02-28T01:39:08;16.72;;;7.98;;
56680;SDS011;42558;52.388;13.390;2023-02-28T01:41:38;19.95;;;7.98;;
56680;SDS011;42558;52.388;13.390;2023-02-28T01:47:29;14.63;;;8.17;;
56680;SDS011;42558;52.388;13.390;2023-02-28T01:50:06;14.06;;;7.79;;
56680;SDS011;42558;52.388;13.390;2023-02-28T01:52:40;13.49;;;7.22;;
56680;SDS011;42558;52.388;13.390;2023-02-28T01:55:12;14.82;;;7.03;;
56680;SDS011;42558;52.388;13.390;2023-02-28T01:57:50;16.53;;;7.98;;
56680;SDS011;42558;52.388;13.390;2023-02-28T02:00:26;16.34;;;7.79;;
56680;SDS011;42558;52.388;13.390;2023-02-28T02:03:06;15.77;;;7.79;;
56680;SDS011;42558;52.388;13.390;2023-02-28T02:05:40;18.24;;;7.79;;
56680;SDS011;42558;52.388;13.390;2023-02-28T02:08:17;12.35;;;7.41;;
56680;SDS011;42558;52.388;13.390;2023-02-28T02:10:54;13.87;;;7.41;;
56680;SDS011;42558;52.388;13.390;2023-02-28T02:25:28;19.19;;;8.36;;
56680;SDS011;42558;52.388;13.390;2023-02-28T02:34:38;14.63;;;7.98;;
56680;SDS011;42558;52.388;13.390;2023-02-28T02:37:40;12.73;;;7.41;;
56680;SDS011;42558;52.388;13.390;2023-02-28T02:40:56;13.87;;;7.79;;
56680;SDS011;42558;52.388;13.390;2023-02-28T02:43:49;12.73;;;7.03;;
56680;SDS011;42558;52.388;13.390;2023-02-28T02:46:28;13.68;;;8.17;;
56680;SDS011;42558;52.388;13.390;2023-02-28T02:49:05;12.92;;;7.60;;
56680;SDS011;42558;52.388;13.390;2023-02-28T02:51:40;15.01;;;7.79;;
56680;SDS011;42558;52.388;13.390;2023-02-28T02:54:15;14.25;;;7.41;;
56680;SDS011;42558;52.388;13.390;2023-02-28T02:56:50;13.11;;;7.79;;
56680;SDS011;42558;52.388;13.390;2023-02-28T02:59:21;16.34;;;8.36;;
56680;SDS011;42558;52.388;13.390;2023-02-28T03:01:55;16.91;;;7.41;;
56680;SDS011;42558;52.388;13.390;2023-02-28T03:04:40;13.49;;;7.41;;
56680;SDS011;42558;52.388;13.390;2023-02-28T03:07:13;12.92;;;7.98;;
56680;SDS011;42558;52.388;13.390;2023-02-28T03:09:51;13.87;;;7.41;;
56680;SDS011;42558;52.388;13.390;2023-02-28T03:12:32;13.49;;;8.17;;
56680;SDS011;42558;52.388;13.390;2023-02-28T03:15:24;14.63;;;6.65;;
56680;SDS011;42558;52.388;13.390;2023-02-28T03:18:08;14.63;;;7.03;;
56680;SDS011;42558;52.388;13.390;2023-02-28T03:20:55;13.49;;;7.79;;
56680;SDS011;42558;52.388;13.390;2023-02-28T03:24:03;14.63;;;7.60;;
56680;SDS011;42558;52.388;13.390;2023-02-28T03:26:39;15.96;;;8.74;;
56680;SDS011;42558;52.388;13.390;2023-02-28T03:29:26;16.72;;;7.41;;
56680;SDS011;42558;52.388;13.390;2023-02-28T03:32:08;15.39;;;8.36;;
56680;SDS011;42558;52.388;13.390;2023-02-28T03:34:58;14.06;;;7.79;;
56680;SDS011;42558;52.388;13.390;2023-02-28T03:37:38;13.30;;;7.03;;
56680;SDS011;42558;52.388;13.390;2023-02-28T03:40:15;14.44;;;7.41;;
56680;SDS011;42558;52.388;13.390;2023-02-28T03:42:55;11.59;;;7.22;;
56680;SDS011;42558;52.388;13.390;2023-02-28T03:45:32;14.44;;;7.03;;
56680;SDS011;42558;52.388;13.390;2023-02-28T03:48:17;13.30;;;7.41;;
56680;SDS011;42558;52.388;13.390;2023-02-28T03:50:57;12.92;;;7.60;;
56680;SDS011;42558;52.388;13.390;2023-02-28T03:53:34;14.44;;;7.79;;
56680;SDS011;42558;52.388;13.390;2023-02-28T03:56:20;17.29;;;7.22;;
56680;SDS011;42558;52.388;13.390;2023-02-28T03:59:01;12.54;;;7.22;;
56680;SDS011;42558;52.388;13.390;2023-02-28T04:01:39;14.44;;;8.17;;
56680;SDS011;42558;52.388;13.390;2023-02-28T04:04:13;13.87;;;7.41;;
56680;SDS011;42558;52.388;13.390;2023-02-28T04:06:44;11.97;;;7.03;;
56680;SDS011;42558;52.388;13.390;2023-02-28T04:09:14;13.87;;;8.17;;
56680;SDS011;42558;52.388;13.390;2023-02-28T04:11:49;14.44;;;8.36;;
56680;SDS011;42558;52.388;13.390;2023-02-28T04:14:19;15.20;;;8.17;;
56680;SDS011;42558;52.388;13.390;2023-02-28T04:16:46;14.82;;;7.60;;
56680;SDS011;42558;52.388;13.390;2023-02-28T04:19:14;14.25;;;7.79;;
56680;SDS011;42558;52.388;13.390;2023-02-28T04:21:52;15.58;;;8.55;;
56680;SDS011;42558;52.388;13.390;2023-02-28T04:24:25;15.39;;;8.93;;
56680;SDS011;42558;52.388;13.390;2023-02-28T04:26:58;12.16;;;7.22;;
56680;SDS011;42558;52.388;13.390;2023-02-28T04:29:30;16.72;;;8.17;;
56680;SDS011;42558;52.388;13.390;2023-02-28T04:32:04;14.82;;;7.22;;
56680;SDS011;42558;52.388;13.390;2023-02-28T04:34:32;17.86;;;8.93;;
56680;SDS011;42558;52.388;13.390;2023-02-28T04:37:00;16.15;;;8.17;;
56680;SDS011;42558;52.388;13.390;2023-02-28T04:39:42;16.53;;;8.17;;
56680;SDS011;42558;52.388;13.390;2023-02-28T04:42:14;15.96;;;7.98;;
56680;SDS011;42558;52.388;13.390;2023-02-28T04:44:46;15.77;;;9.12;;
56680;SDS011;42558;52.388;13.390;2023-02-28T04:47:16;17.67;;;8.93;;
56680;SDS011;42558;52.388;13.390;2023-02-28T04:49:46;16.15;;;8.74;;
56680;SDS011;42558;52.388;13.390;2023-02-28T04:52:16;13.49;;;7.79;;
56680;SDS011;42558;52.388;13.390;2023-02-28T04:54:46;14.63;;;8.17;;
56680;SDS011;42558;52.388;13.390;2023-02-28T04:57:15;14.06;;;8.36;;
56680;SDS011;42558;52.388;13.390;2023-02-28T04:59:45;19.95;;;8.74;;
56680;SDS011;42558;52.388;13.390;2023-02-28T05:02:15;17.48;;;7.98;;
56680;SDS011;42558;52.388;13.390;2023-02-28T05:04:45;18.81;;;9.12;;
56680;SDS011;42558;52.388;13.390;2023-02-28T05:07:15;17.48;;;9.50;;
56680;SDS011;42558;52.388;13.390;2023-02-28T05:09:42;14.44;;;8.36;;
56680;SDS011;42558;52.388;13.390;2023-02-28T05:12:10;14.63;;;8.36;;
56680;SDS011;42558;52.388;13.390;2023-02-28T05:14:41;17.29;;;8.36;;
56680;SDS011;42558;52.388;13.390;2023-02-28T05:17:10;14.63;;;7.98;;
56680;SDS011;42558;52.388;13.390;2023-02-28T05:19:40;15.01;;;9.12;;
56680;SDS011;42558;52.388;13.390;2023-02-28T05:22:14;15.58;;;8.74;;
56680;SDS011;42558;52.388;13.390;2023-02-28T05:24:45;18.24;;;9.31;;
56680;SDS011;42558;52.388;13.390;2023-02-28T05:27:12;19.19;;;9.69;;
56680;SDS011;42558;52.388;13.390;2023-02-28T05:29:42;20.52;;;10.26;;
56680;SDS011;42558;52.388;13.390;2023-02-28T05:32:13;19.19;;;8.93;;
56680;SDS011;42558;52.388;13.390;2023-02-28T05:34:44;18.05;;;8.93;;
56680;SDS011;42558;52.388;13.390;2023-02-28T05:37:13;17.86;;;8.55;;
56680;SDS011;42558;52.388;13.390;2023-02-28T05:39:43;13.30;;;8.36;;
56680;SDS011;42558;52.388;13.390;2023-02-28T05:42:15;16.72;;;8.55;;
56680;SDS011;42558;52.388;13.390;2023-02-28T05:44:43;19.38;;;9.12;;
56680;SDS011;42558;52.388;13.390;2023-02-28T05:47:12;14.44;;;8.55;;
56680;SDS011;42558;52.388;13.390;2023-02-28T05:49:44;16.15;;;8.93;;
56680;SDS011;42558;52.388;13.390;2023-02-28T05:52:11;14.82;;;9.12;;
56680;SDS011;42558;52.388;13.390;2023-02-28T05:54:41;16.91;;;8.74;;
56680;SDS011;42558;52.388;13.390;2023-02-28T05:57:11;19.57;;;9.31;;
56680;SDS011;42558;52.388;13.390;2023-02-28T05:59:53;17.86;;;8.36;;
56680;SDS011;42558;52.388;13.390;2023-02-28T06:02:21;15.20;;;8.74;;
56680;SDS011;42558;52.388;13.390;2023-02-28T06:04:49;16.34;;;8.55;;
56680;SDS011;42558;52.388;13.390;2023-02-28T06:07:16;17.48;;;9.88;;
56680;SDS011;42558;52.388;13.390;2023-02-28T06:09:45;18.62;;;9.31;;
56680;SDS011;42558;52.388;13.390;2023-02-28T06:12:16;17.29;;;8.93;;
56680;SDS011;42558;52.388;13.390;2023-02-28T06:14:45;17.67;;;9.69;;
56680;SDS011;42558;52.388;13.390;2023-02-28T06:17:13;15.58;;;10.07;;
56680;SDS011;42558;52.388;13.390;2023-02-28T06:19:42;17.86;;;10.26;;
56680;SDS011;42558;52.388;13.390;2023-02-28T06:22:11;18.62;;;10.26;;
56680;SDS011;42558;52.388;13.390;2023-02-28T06:24:39;22.42;;;9.69;;
56680;SDS011;42558;52.388;13.390;2023-02-28T06:27:08;17.29;;;10.07;;
56680;SDS011;42558;52.388;13.390;2023-02-28T06:29:37;21.28;;;10.45;;
56680;SDS011;42558;52.388;13.390;2023-02-28T06:32:09;19.76;;;10.64;;
56680;SDS011;42558;52.388;13.390;2023-02-28T06:34:38;18.62;;;11.02;;
56680;SDS011;42558;52.388;13.390;2023-02-28T06:37:05;19.19;;;11.59;;
56680;SDS011;42558;52.388;13.390;2023-02-28T06:39:34;18.05;;;10.26;;
56680;SDS011;42558;52.388;13.390;2023-02-28T06:42:03;18.62;;;10.45;;
56680;SDS011;42558;52.388;13.390;2023-02-28T06:44:36;19.38;;;11.40;;
56680;SDS011;42558;52.388;13.390;2023-02-28T06:47:05;20.33;;;10.83;;
56680;SDS011;42558;52.388;13.390;2023-02-28T06:49:35;19.19;;;10.45;;
56680;SDS011;42558;52.388;13.390;2023-02-28T06:52:05;19.19;;;11.97;;
56680;SDS011;42558;52.388;13.390;2023-02-28T06:54:36;21.09;;;10.64;;
56680;SDS011;42558;52.388;13.390;2023-02-28T06:57:06;18.62;;;11.59;;
56680;SDS011;42558;52.388;13.390;2023-02-28T06:59:36;23.94;;;12.16;;
56680;SDS011;42558;52.388;13.390;2023-02-28T07:02:05;21.28;;;12.16;;
56680;SDS011;42558;52.388;13.390;2023-02-28T07:04:37;25.65;;;13.11;;
56680;SDS011;42558;52.388;13.390;2023-02-28T07:07:09;24.70;;;12.35;;
56680;SDS011;42558;52.388;13.390;2023-02-28T07:09:38;24.51;;;12.16;;
56680;SDS011;42558;52.388;13.390;2023-02-28T07:12:09;18.62;;;11.59;;
56680;SDS011;42558;52.388;13.390;2023-02-28T07:14:40;19.19;;;11.40;;
56680;SDS011;42558;52.388;13.390;2023-02-28T07:17:11;19.38;;;11.40;;
56680;SDS011;42558;52.388;13.390;2023-02-28T07:19:40;23.18;;;12.73;;
56680;SDS011;42558;52.388;13.390;2023-02-28T07:22:09;24.51;;;13.87;;
56680;SDS011;42558;52.388;13.390;2023-02-28T07:24:37;23.75;;;13.30;;
56680;SDS011;42558;52.388;13.390;2023-02-28T07:27:06;25.84;;;14.06;;
56680;SDS011;42558;52.388;13.390;2023-02-28T07:29:34;24.51;;;14.63;;
56680;SDS011;42558;52.388;13.390;2023-02-28T07:32:03;25.08;;;13.30;;
56680;SDS011;42558;52.388;13.390;2023-02-28T07:34:31;20.52;;;12.35;;
56680;SDS011;42558;52.388;13.390;2023-02-28T07:36:59;24.51;;;10.83;;
56680;SDS011;42558;52.388;13.390;2023-02-28T07:39:31;19.38;;;10.83;;
56680;SDS011;42558;52.388;13.390;2023-02-28T07:41:59;21.66;;;11.02;;
56680;SDS011;42558;52.388;13.390;2023-02-28T07:44:28;24.32;;;11.21;;
56680;SDS011;42558;52.388;13.390;2023-02-28T07:46:56;22.61;;;10.45;;
56680;SDS011;42558;52.388;13.390;2023-02-28T07:49:24;16.34;;;9.31;;
56680;SDS011;42558;52.388;13.390;2023-02-28T07:51:53;17.67;;;9.12;;
56680;SDS011;42558;52.388;13.390;2023-02-28T07:54:21;22.42;;;9.50;;
56680;SDS011;42558;52.388;13.390;2023-02-28T07:56:50;16.91;;;8.17;;
56680;SDS011;42558;52.388;13.390;2023-02-28T07:59:18;15.20;;;7.98;;
56680;SDS011;42558;52.388;13.390;2023-02-28T08:01:46;14.25;;;8.17;;
56680;SDS011;42558;52.388;13.390;2023-02-28T08:04:19;14.63;;;7.60;;
56680;SDS011;42558;52.388;13.390;2023-02-28T08:06:49;15.20;;;7.41;;
56680;SDS011;42558;52.388;13.390;2023-02-28T08:09:21;13.68;;;7.41;;
56680;SDS011;42558;52.388;13.390;2023-02-28T08:11:51;17.10;;;7.60;;
56680;SDS011;42558;52.388;13.390;2023-02-28T08:14:21;12.54;;;6.27;;
56680;SDS011;42558;52.388;13.390;2023-02-28T08:16:51;15.58;;;6.46;;
56680;SDS011;42558;52.388;13.390;2023-02-28T08:19:21;12.35;;;6.27;;
56680;SDS011;42558;52.388;13.390;2023-02-28T08:21:51;17.10;;;7.98;;
56680;SDS011;42558;52.388;13.390;2023-02-28T08:24:21;16.15;;;7.98;;
56680;SDS011;42558;52.388;13.390;2023-02-28T08:26:51;13.68;;;7.41;;
56680;SDS011;42558;52.388;13.390;2023-02-28T08:29:22;13.87;;;7.98;;
56680;SDS011;42558;52.388;13.390;2023-02-28T08:31:52;15.58;;;7.98;;
56680;SDS011;42558;52.388;13.390;2023-02-28T08:34:22;16.72;;;9.12;;
56680;SDS011;42558;52.388;13.390;2023-02-28T08:36:52;16.53;;;8.74;;
56680;SDS011;42558;52.388;13.390;2023-02-28T08:39:22;15.58;;;8.36;;
56680;SDS011;42558;52.388;13.390;2023-02-28T08:41:52;13.30;;;7.03;;
56680;SDS011;42558;52.388;13.390;2023-02-28T08:44:35;12.92;;;6.65;;
56680;SDS011;42558;52.388;13.390;2023-02-28T08:47:05;10.83;;;5.51;;
56680;SDS011;42558;52.388;13.390;2023-02-28T08:49:36;13.87;;;7.03;;
56680;SDS011;42558;52.388;13.390;2023-02-28T08:52:07;11.97;;;6.65;;
56680;SDS011;42558;52.388;13.390;2023-02-28T08:54:37;13.49;;;6.08;;
56680;SDS011;42558;52.388;13.390;2023-02-28T08:57:06;12.54;;;6.27;;
56680;SDS011;42558;52.388;13.390;2023-02-28T08:59:36;11.21;;;5.51;;
56680;SDS011;42558;52.388;13.390;2023-02-28T09:02:09;13.49;;;6.46;;
56680;SDS011;42558;52.388;13.390;2023-02-28T09:04:41;13.11;;;6.46;;
56680;SDS011;42558;52.388;13.390;2023-02-28T09:07:12;13.87;;;6.27;;
56680;SDS011;42558;52.388;13.390;2023-02-28T09:09:42;10.83;;;6.27;;
56680;SDS011;42558;52.388;13.390;2023-02-28T09:12:24;13.87;;;6.08;;
56680;SDS011;42558;52.388;13.390;2023-02-28T09:14:54;10.45;;;5.51;;
56680;SDS011;42558;52.388;13.390;2023-02-28T09:17:23;11.40;;;5.32;;
56680;SDS011;42558;52.388;13.390;2023-02-28T09:19:59;13.49;;;6.46;;
56680;SDS011;42558;52.388;13.390;2023-02-28T09:22:29;11.02;;;6.27;;
56680;SDS011;42558;52.388;13.390;2023-02-28T09:24:59;11.59;;;5.51;;
56680;SDS011;42558;52.388;13.390;2023-02-28T09:27:29;11.21;;;4.37;;
56680;SDS011;42558;52.388;13.390;2023-02-28T09:29:58;11.97;;;4.56;;
56680;SDS011;42558;52.388;13.390;2023-02-28T09:32:28;9.69;;;4.56;;
56680;SDS011;42558;52.388;13.390;2023-02-28T09:34:58;11.59;;;5.70;;
56680;SDS011;42558;52.388;13.390;2023-02-28T09:37:28;12.92;;;5.89;;
56680;SDS011;42558;52.388;13.390;2023-02-28T09:40:00;12.35;;;5.89;;
56680;SDS011;42558;52.388;13.390;2023-02-28T09:42:32;8.36;;;4.75;;
56680;SDS011;42558;52.388;13.390;2023-02-28T09:45:10;9.12;;;5.13;;
56680;SDS011;42558;52.388;13.390;2023-02-28T09:47:50;11.21;;;4.94;;
56680;SDS011;42558;52.388;13.390;2023-02-28T09:52:56;11.97;;;5.13;;
56680;SDS011;42558;52.388;13.390;2023-02-28T09:55:36;9.31;;;4.94;;
56680;SDS011;42558;52.388;13.390;2023-02-28T10:01:18;9.31;;;4.37;;
56680;SDS011;42558;52.388;13.390;2023-02-28T10:04:32;12.54;;;4.37;;
56680;SDS011;42558;52.388;13.390;2023-02-28T10:09:53;7.41;;;3.23;;
56680;SDS011;42558;52.388;13.390;2023-02-28T10:12:27;10.07;;;3.80;;
56680;SDS011;42558;52.388;13.390;2023-02-28T10:14:59;8.93;;;3.80;;
56680;SDS011;42558;52.388;13.390;2023-02-28T10:17:40;9.31;;;4.18;;
56680;SDS011;42558;52.388;13.390;2023-02-28T10:20:32;8.55;;;3.80;;
56680;SDS011;42558;52.388;13.390;2023-02-28T10:26:00;10.83;;;3.99;;
56680;SDS011;42558;52.388;13.390;2023-02-28T10:28:42;7.03;;;3.42;;
56680;SDS011;42558;52.388;13.390;2023-02-28T10:31:19;8.17;;;3.23;;
56680;SDS011;42558;52.388;13.390;2023-02-28T10:33:49;7.98;;;3.80;;
56680;SDS011;42558;52.388;13.390;2023-02-28T10:36:19;8.74;;;3.23;;
56680;SDS011;42558;52.388;13.390;2023-02-28T10:38:49;8.36;;;3.99;;
56680;SDS011;42558;52.388;13.390;2023-02-28T10:41:30;8.93;;;3.61;;
56680;SDS011;42558;52.388;13.390;2023-02-28T10:44:20;7.41;;;3.04;;
56680;SDS011;42558;52.388;13.390;2023-02-28T10:46:50;9.50;;;3.42;;
56680;SDS011;42558;52.388;13.390;2023-02-28T10:49:23;7.03;;;2.85;;
56680;SDS011;42558;52.388;13.390;2023-02-28T10:51:58;7.98;;;2.85;;
56680;SDS011;42558;52.388;13.390;2023-02-28T10:54:32;7.60;;;3.80;;
56680;SDS011;42558;52.388;13.390;2023-02-28T10:57:15;9.69;;;3.80;;
56680;SDS011;42558;52.388;13.390;2023-02-28T10:59:51;8.36;;;3.61;;
56680;SDS011;42558;52.388;13.390;2023-02-28T11:08:14;6.84;;;3.61;;
56680;SDS011;42558;52.388;13.390;2023-02-28T11:10:58;8.74;;;3.99;;
56680;SDS011;42558;52.388;13.390;2023-02-28T11:13:35;7.60;;;3.99;;
56680;SDS011;42558;52.388;13.390;2023-02-28T11:16:09;9.31;;;3.99;;
56680;SDS011;42558;52.388;13.390;2023-02-28T11:21:37;7.98;;;3.99;;
56680;SDS011;42558;52.388;13.390;2023-02-28T11:26:52;7.41;;;3.80;;
56680;SDS011;42558;52.388;13.390;2023-02-28T11:29:28;8.93;;;4.18;;
56680;SDS011;42558;52.388;13.390;2023-02-28T11:32:15;9.12;;;4.18;;
56680;SDS011;42558;52.388;13.390;2023-02-28T11:35:26;7.79;;;3.80;;
56680;SDS011;42558;52.388;13.390;2023-02-28T11:38:12;7.79;;;3.61;;
56680;SDS011;42558;52.388;13.390;2023-02-28T11:41:55;11.02;;;4.56;;
56680;SDS011;42558;52.388;13.390;2023-02-28T11:47:47;8.93;;;3.99;;
56680;SDS011;42558;52.388;13.390;2023-02-28T11:50:46;9.31;;;3.99;;
56680;SDS011;42558;52.388;13.390;2023-02-28T11:56:43;8.17;;;3.99;;
56680;SDS011;42558;52.388;13.390;2023-02-28T12:04:59;8.55;;;3.99;;
56680;SDS011;42558;52.388;13.390;2023-02-28T12:20:11;13.49;;;5.32;;
56680;SDS011;42558;52.388;13.390;2023-02-28T12:28:37;9.31;;;4.56;;
56680;SDS011;42558;52.388;13.390;2023-02-28T12:31:20;9.69;;;4.56;;
56680;SDS011;42558;52.388;13.390;2023-02-28T12:34:03;9.88;;;4.56;;
56680;SDS011;42558;52.388;13.390;2023-02-28T12:36:37;10.45;;;4.18;;
56680;SDS011;42558;52.388;13.390;2023-02-28T12:39:29;10.83;;;5.32;;
56680;SDS011;42558;52.388;13.390;2023-02-28T12:42:30;10.64;;;5.13;;
56680;SDS011;42558;52.388;13.390;2023-02-28T12:45:18;12.92;;;4.94;;
56680;SDS011;42558;52.388;13.390;2023-02-28T12:47:57;13.87;;;4.56;;
56680;SDS011;42558;52.388;13.390;2023-02-28T12:50:33;10.26;;;4.75;;
56680;SDS011;42558;52.388;13.390;2023-02-28T12:59:14;11.78;;;4.94;;
56680;SDS011;42558;52.388;13.390;2023-02-28T13:02:17;12.35;;;4.75;;
56680;SDS011;42558;52.388;13.390;2023-02-28T13:10:47;10.64;;;3.99;;
56680;SDS011;42558;52.388;13.390;2023-02-28T13:13:25;15.39;;;6.08;;
56680;SDS011;42558;52.388;13.390;2023-02-28T13:16:08;9.12;;;4.18;;
56680;SDS011;42558;52.388;13.390;2023-02-28T13:18:43;10.45;;;4.94;;
56680;SDS011;42558;52.388;13.390;2023-02-28T13:21:28;9.50;;;4.37;;
56680;SDS011;42558;52.388;13.390;2023-02-28T13:24:04;10.26;;;4.94;;
56680;SDS011;42558;52.388;13.390;2023-02-28T13:39:55;9.69;;;5.51;;
56680;SDS011;42558;52.388;13.390;2023-02-28T13:42:47;11.59;;;5.70;;
56680;SDS011;42558;52.388;13.390;2023-02-28T13:45:28;10.83;;;5.13;;
56680;SDS011;42558;52.388;13.390;2023-02-28T13:48:26;15.20;;;5.32;;
56680;SDS011;42558;52.388;13.390;2023-02-28T13:50:58;8.74;;;5.13;;
56680;SDS011;42558;52.388;13.390;2023-02-28T13:54:04;10.45;;;4.94;;
56680;SDS011;42558;52.388;13.390;2023-02-28T13:59:34;11.40;;;5.32;;
56680;SDS011;42558;52.388;13.390;2023-02-28T14:02:40;11.40;;;5.70;;
56680;SDS011;42558;52.388;13.390;2023-02-28T14:05:37;10.45;;;4.56;;
56680;SDS011;42558;52.388;13.390;2023-02-28T14:08:16;11.02;;;5.32;;
56680;SDS011;42558;52.388;13.390;2023-02-28T14:11:08;9.69;;;4.75;;
56680;SDS011;42558;52.388;13.390;2023-02-28T14:13:51;11.02;;;4.94;;
56680;SDS011;42558;52.388;13.390;2023-02-28T14:16:28;11.97;;;5.32;;
56680;SDS011;42558;52.388;13.390;2023-02-28T14:19:31;10.26;;;4.94;;
56680;SDS011;42558;52.388;13.390;2023-02-28T14:25:22;10.26;;;4.94;;
56680;SDS011;42558;52.388;13.390;2023-02-28T14:31:09;10.45;;;5.13;;
56680;SDS011;42558;52.388;13.390;2023-02-28T14:36:49;14.63;;;5.32;;
56680;SDS011;42558;52.388;13.390;2023-02-28T14:39:25;11.21;;;6.08;;
56680;SDS011;42558;52.388;13.390;2023-02-28T14:42:00;8.55;;;4.56;;
56680;SDS011;42558;52.388;13.390;2023-02-28T14:44:36;13.87;;;6.08;;
56680;SDS011;42558;52.388;13.390;2023-02-28T14:47:03;12.54;;;5.51;;
56680;SDS011;42558;52.388;13.390;2023-02-28T14:49:41;12.54;;;5.13;;
56680;SDS011;42558;52.388;13.390;2023-02-28T14:52:22;11.02;;;4.94;;
56680;SDS011;42558;52.388;13.390;2023-02-28T14:54:56;9.50;;;4.94;;
56680;SDS011;42558;52.388;13.390;2023-02-28T14:57:40;10.07;;;5.70;;
56680;SDS011;42558;52.388;13.390;2023-02-28T15:00:24;10.64;;;5.89;;
56680;SDS011;42558;52.388;13.390;2023-02-28T15:02:58;11.21;;;4.37;;
56680;SDS011;42558;52.388;13.390;2023-02-28T15:05:34;11.59;;;5.70;;
56680;SDS011;42558;52.388;13.390;2023-02-28T15:08:16;10.45;;;5.51;;
56680;SDS011;42558;52.388;13.390;2023-02-28T15:10:59;10.83;;;5.51;;
56680;SDS011;42558;52.388;13.390;2023-02-28T15:13:51;13.68;;;5.70;;
56680;SDS011;42558;52.388;13.390;2023-02-28T15:16:36;11.02;;;5.32;;
56680;SDS011;42558;52.388;13.390;2023-02-28T15:19:27;11.40;;;4.75;;
56680;SDS011;42558;52.388;13.390;2023-02-28T15:22:02;13.49;;;5.32;;
56680;SDS011;42558;52.388;13.390;2023-02-28T15:24:41;11.40;;;5.70;;
56680;SDS011;42558;52.388;13.390;2023-02-28T15:27:28;10.83;;;5.13;;
56680;SDS011;42558;52.388;13.390;2023-02-28T15:30:35;12.54;;;5.32;;
56680;SDS011;42558;52.388;13.390;2023-02-28T15:33:24;12.73;;;6.27;;
56680;SDS011;42558;52.388;13.390;2023-02-28T15:36:26;12.73;;;5.89;;
56680;SDS011;42558;52.388;13.390;2023-02-28T15:38:57;9.69;;;5.51;;
56680;SDS011;42558;52.388;13.390;2023-02-28T15:41:44;13.11;;;6.08;;
56680;SDS011;42558;52.388;13.390;2023-02-28T15:44:26;13.11;;;5.89;;
56680;SDS011;42558;52.388;13.390;2023-02-28T15:47:23;10.64;;;5.89;;
56680;SDS011;42558;52.388;13.390;2023-02-28T15:50:02;11.40;;;6.27;;
56680;SDS011;42558;52.388;13.390;2023-02-28T15:52:43;15.77;;;5.70;;
56680;SDS011;42558;52.388;13.390;2023-02-28T15:55:18;10.45;;;5.32;;
56680;SDS011;42558;52.388;13.390;2023-02-28T15:57:53;13.87;;;6.65;;
56680;SDS011;42558;52.388;13.390;2023-02-28T16:00:29;10.45;;;5.32;;
56680;SDS011;42558;52.388;13.390;2023-02-28T16:03:22;12.92;;;6.08;;
56680;SDS011;42558;52.388;13.390;2023-02-28T16:06:21;12.73;;;7.03;;
56680;SDS011;42558;52.388;13.390;2023-02-28T16:09:16;11.02;;;6.08;;
56680;SDS011;42558;52.388;13.390;2023-02-28T16:11:51;16.34;;;7.03;;
56680;SDS011;42558;52.388;13.390;2023-02-28T16:14:26;14.25;;;7.03;;
56680;SDS011;42558;52.388;13.390;2023-02-28T16:17:07;11.78;;;6.27;;
56680;SDS011;42558;52.388;13.390;2023-02-28T16:19:52;10.83;;;5.51;;
56680;SDS011;42558;52.388;13.390;2023-02-28T16:22:22;11.40;;;6.08;;
56680;SDS011;42558;52.388;13.390;2023-02-28T16:24:50;12.54;;;5.70;;
56680;SDS011;42558;52.388;13.390;2023-02-28T16:27:29;10.64;;;5.89;;
56680;SDS011;42558;52.388;13.390;2023-02-28T16:30:00;11.78;;;6.27;;
56680;SDS011;42558;52.388;13.390;2023-02-28T16:32:32;11.97;;;5.89;;
56680;SDS011;42558;52.388;13.390;2023-02-28T16:35:09;11.78;;;5.70;;
56680;SDS011;42558;52.388;13.390;2023-02-28T16:37:40;12.35;;;5.70;;
56680;SDS011;42558;52.388;13.390;2023-02-28T16:40:25;11.78;;;5.89;;
56680;SDS011;42558;52.388;13.390;2023-02-28T16:42:59;13.68;;;5.70;;
56680;SDS011;42558;52.388;13.390;2023-02-28T16:45:30;13.11;;;6.46;;
56680;SDS011;42558;52.388;13.390;2023-02-28T16:48:00;13.30;;;5.89;;
56680;SDS011;42558;52.388;13.390;2023-02-28T16:50:30;12.73;;;6.27;;
56680;SDS011;42558;52.388;13.390;2023-02-28T16:53:02;12.92;;;5.70;;
56680;SDS011;42558;52.388;13.390;2023-02-28T16:55:31;13.30;;;5.51;;
56680;SDS011;42558;52.388;13.390;2023-02-28T16:58:02;15.39;;;6.46;;
56680;SDS011;42558;52.388;13.390;2023-02-28T17:00:32;13.87;;;5.70;;
56680;SDS011;42558;52.388;13.390;2023-02-28T17:03:00;11.40;;;5.89;;